Time;durP1;ratioP1;P1;durP2;ratioP2;P2;SDS_P1;SDS_P2;PMS_P1;PMS_P2;Temp;Humidity;BMP_temperature;BMP_pressure;BME280_temperature;BME280_humidity;BME280_pressure;Samples;Min_cycle;Max_cycle;Signal;HPM_P1;HPM_P2
2024/02/15 00:00:17;;;;;;;27.75;15.38;;;;;;;-146.18;100.00;67994.34;10261832;28;20045;-73
2024/02/15 00:05:15;;;;;;;27.88;14.45;;;;;;;-146.18;100.00;67994.34;10253479;28;20527;-72
2024/02/15 00:10:12;;;;;;;26.25;14.70;;;;;;;-146.18;100.00;67994.34;10242532;28;20497;-72
2024/02/15 00:15:08;;;;;;;25.63;13.90;;;;;;;-146.18;100.00;67994.34;10253394;28;20053;-75
2024/02/15 00:20:09;;;;;;;24.65;13.35;;;;;;;-146.18;100.00;67994.34;10244916;28;20076;-72
2024/02/15 00:25:06;;;;;;;29.50;15.60;;;;;;;-146.18;100.00;67994.34;10257846;28;20481;-73
2024/02/15 00:30:05;;;;;;;30.40;15.93;;;;;;;-146.18;100.00;67994.34;10256792;28;20057;-73
2024/02/15 00:35:01;;;;;;;32.58;17.10;;;;;;;-146.18;100.00;67994.34;10274739;28;20103;-73
2024/02/15 00:39:58;;;;;;;40.10;18.73;;;;;;;-146.18;100.00;67994.34;10254032;28;20064;-73
2024/02/15 00:44:55;;;;;;;36.10;18.83;;;;;;;-146.18;100.00;67994.34;10249000;28;20109;-73
2024/02/15 00:49:52;;;;;;;38.72;19.67;;;;;;;-146.18;100.00;67994.34;10258252;28;20056;-74
2024/02/15 00:54:49;;;;;;;38.25;21.27;;;;;;;-146.18;100.00;67994.34;10263706;28;20053;-75
2024/02/15 00:59:46;;;;;;;44.28;22.67;;;;;;;-146.18;100.00;67994.34;10262246;28;20044;-72
2024/02/15 01:04:42;;;;;;;37.95;21.48;;;;;;;-146.18;100.00;67994.34;10250375;28;20055;-72
2024/02/15 01:09:39;;;;;;;36.00;21.10;;;;;;;-146.18;100.00;67994.34;10266427;28;20044;-73
2024/02/15 01:14:36;;;;;;;34.83;20.25;;;;;;;-146.18;100.00;67994.34;10274139;28;20512;-74
2024/02/15 01:19:32;;;;;;;35.88;21.90;;;;;;;-146.18;100.00;67994.34;10272788;28;20048;-72
2024/02/15 01:24:30;;;;;;;45.38;22.80;;;;;;;-146.18;100.00;67994.34;10264756;28;20068;-73
2024/02/15 01:29:26;;;;;;;43.30;21.50;;;;;;;-146.18;100.00;67994.34;10262020;28;20406;-74
2024/02/15 01:34:23;;;;;;;39.55;23.38;;;;;;;-146.18;100.00;67994.34;10265510;28;20147;-74
2024/02/15 01:39:20;;;;;;;37.03;20.77;;;;;;;-146.18;100.00;67994.34;10261563;28;20132;-71
2024/02/15 01:44:18;;;;;;;38.90;21.70;;;;;;;-146.18;100.00;67994.34;10259757;28;20048;-73
2024/02/15 01:49:15;;;;;;;39.38;21.25;;;;;;;-146.18;100.00;67994.34;10264882;28;20056;-73
2024/02/15 01:54:16;;;;;;;38.40;20.40;;;;;;;-146.18;100.00;67994.34;10267632;28;20098;-72
2024/02/15 01:59:15;;;;;;;39.85;21.27;;;;;;;-146.18;100.00;67994.34;10259998;28;20037;-72
2024/02/15 02:04:12;;;;;;;40.85;20.63;;;;;;;-146.18;100.00;67994.34;10265562;28;20464;-73
2024/02/15 02:09:15;;;;;;;39.05;20.83;;;;;;;-146.18;100.00;67994.34;10261052;28;20053;-74
2024/02/15 02:14:12;;;;;;;40.38;20.83;;;;;;;-146.18;100.00;67994.34;10259399;28;20045;-73
2024/02/15 02:19:09;;;;;;;36.63;19.92;;;;;;;-146.18;100.00;67994.34;10261540;28;20095;-73
2024/02/15 02:24:13;;;;;;;38.05;21.23;;;;;;;-146.18;100.00;67994.34;10262356;28;20075;-72
2024/02/15 02:29:10;;;;;;;43.35;21.63;;;;;;;-146.18;100.00;67994.34;10254612;28;20139;-74
2024/02/15 02:34:07;;;;;;;39.38;21.13;;;;;;;-146.18;100.00;67994.34;10261788;28;20052;-71
2024/02/15 02:39:04;;;;;;;38.85;20.75;;;;;;;-146.18;100.00;67994.34;10260390;28;20049;-71
2024/02/15 02:44:01;;;;;;;42.30;21.00;;;;;;;-146.18;100.00;67994.34;10255516;28;20139;-72
2024/02/15 02:48:57;;;;;;;36.80;18.88;;;;;;;-146.18;100.00;67994.34;10258651;28;20049;-74
2024/02/15 02:53:54;;;;;;;37.35;18.92;;;;;;;-146.18;100.00;67994.34;10257607;28;20049;-73
2024/02/15 02:58:52;;;;;;;37.20;20.52;;;;;;;-146.18;100.00;67994.34;10260000;28;20049;-73
2024/02/15 03:03:49;;;;;;;38.80;19.90;;;;;;;-146.18;100.00;67994.34;10261634;28;20048;-73
2024/02/15 03:08:46;;;;;;;40.75;19.38;;;;;;;-146.18;100.00;67994.34;10266113;28;20045;-73
2024/02/15 03:13:44;;;;;;;40.53;19.70;;;;;;;-146.18;100.00;67994.34;10261851;28;20045;-75
2024/02/15 03:18:41;;;;;;;38.42;18.88;;;;;;;-146.18;100.00;67994.34;10263941;28;20509;-72
2024/02/15 03:23:38;;;;;;;31.15;16.67;;;;;;;-146.18;100.00;67994.34;10252252;28;20053;-72
2024/02/15 03:28:36;;;;;;;28.50;15.70;;;;;;;-146.18;100.00;67994.34;10261501;28;20128;-72
2024/02/15 03:33:34;;;;;;;27.52;15.65;;;;;;;-146.18;100.00;67994.34;10262421;28;20059;-73
2024/02/15 03:38:31;;;;;;;31.65;14.60;;;;;;;-146.18;100.00;67994.34;10262749;28;20079;-69
2024/02/15 03:43:27;;;;;;;29.02;14.57;;;;;;;-146.18;100.00;67994.34;10251803;28;20050;-70
2024/02/15 03:48:24;;;;;;;25.00;13.70;;;;;;;-146.18;100.00;67994.34;10244587;28;20041;-70
2024/02/15 03:53:20;;;;;;;29.23;15.35;;;;;;;-146.18;100.00;67994.34;10262923;28;20041;-70
2024/02/15 03:58:17;;;;;;;29.08;16.05;;;;;;;-146.18;100.00;67994.34;10255033;28;20098;-70
2024/02/15 04:03:13;;;;;;;37.60;17.23;;;;;;;-146.18;100.00;67994.34;10250341;28;20519;-71
2024/02/15 04:08:10;;;;;;;39.05;18.77;;;;;;;-146.18;100.00;67994.34;10254451;28;20041;-71
2024/02/15 04:13:07;;;;;;;33.72;18.13;;;;;;;-146.18;100.00;67994.34;10261579;28;20538;-71
2024/02/15 04:18:04;;;;;;;36.38;18.50;;;;;;;-146.18;100.00;67994.34;10251488;28;20064;-71
2024/02/15 04:23:00;;;;;;;41.33;20.38;;;;;;;-146.18;100.00;67994.34;10254289;28;20079;-71
2024/02/15 04:27:59;;;;;;;46.95;20.83;;;;;;;-146.18;100.00;67994.34;10255846;28;20050;-72
2024/02/15 04:32:56;;;;;;;43.13;19.42;;;;;;;-146.18;100.00;67994.34;10262315;28;20045;-72
2024/02/15 04:37:53;;;;;;;43.70;21.60;;;;;;;-146.18;100.00;67994.34;10262518;28;20048;-71
2024/02/15 04:42:49;;;;;;;52.65;21.58;;;;;;;-146.18;100.00;67994.34;10249264;28;20624;-73
2024/02/15 04:47:49;;;;;;;48.90;20.95;;;;;;;-146.18;100.00;67994.34;10259623;28;20049;-71
2024/02/15 04:52:48;;;;;;;43.00;21.15;;;;;;;-146.18;100.00;67994.34;10273205;28;20040;-71
2024/02/15 04:57:47;;;;;;;44.00;20.15;;;;;;;-146.18;100.00;67994.34;10263981;28;20045;-71
2024/02/15 05:02:44;;;;;;;44.03;21.30;;;;;;;-146.18;100.00;67994.34;10264184;28;20128;-70
2024/02/15 05:07:42;;;;;;;45.38;21.15;;;;;;;-146.18;100.00;67994.34;10263398;28;20408;-71
2024/02/15 05:12:40;;;;;;;49.45;21.60;;;;;;;-146.18;100.00;67994.34;10262153;28;20049;-69
2024/02/15 05:17:40;;;;;;;47.22;22.23;;;;;;;-146.18;100.00;67994.34;10261324;28;20095;-70
2024/02/15 05:22:39;;;;;;;44.78;21.70;;;;;;;-146.18;100.00;67994.34;10258994;28;20091;-71
2024/02/15 05:30:33;;;;;;;46.72;21.73;;;;;;;10.55;100.00;101185.34;10440461;27;20582;-72
2024/02/15 05:35:30;;;;;;;46.08;22.25;;;;;;;10.55;100.00;101179.09;10374162;28;20090;-72
2024/02/15 05:40:26;;;;;;;44.28;22.60;;;;;;;10.53;100.00;101182.13;10374801;28;20040;-72
2024/02/15 05:45:24;;;;;;;42.67;20.20;;;;;;;10.57;100.00;101176.84;10378527;28;20108;-73
2024/02/15 05:50:21;;;;;;;41.47;20.63;;;;;;;10.56;100.00;101175.22;10385848;28;20051;-73
2024/02/15 05:55:18;;;;;;;44.05;22.05;;;;;;;10.58;100.00;101165.59;10386319;28;20067;-74
2024/02/15 06:00:17;;;;;;;47.50;21.00;;;;;;;10.58;100.00;101175.72;10378251;28;20044;-71
2024/02/15 06:05:19;;;;;;;44.53;21.70;;;;;;;10.58;100.00;101173.78;10372017;28;20142;-73
2024/02/15 06:10:16;;;;;;;42.60;21.38;;;;;;;10.59;100.00;101180.09;10337510;28;20051;-74
2024/02/15 06:15:15;;;;;;;49.15;22.00;;;;;;;10.63;100.00;101181.09;10335244;27;20124;-72
2024/02/15 06:20:14;;;;;;;50.63;23.40;;;;;;;10.60;100.00;101187.97;10337694;27;20044;-72
2024/02/15 06:25:10;;;;;;;50.33;24.10;;;;;;;10.60;100.00;101187.97;10326488;27;20378;-73
2024/02/15 06:40:40;;;;;;;48.55;22.08;;;;;;;10.64;100.00;101189.00;10312530;28;20051;-73
2024/02/15 06:45:37;;;;;;;57.80;25.63;;;;;;;10.63;100.00;101192.84;10307262;28;20406;-71
2024/02/15 06:50:37;;;;;;;48.75;21.95;;;;;;;10.67;100.00;101188.38;10300698;28;20043;-73
2024/02/15 06:55:33;;;;;;;52.30;20.27;;;;;;;10.68;100.00;101189.19;10311554;28;20123;-72
2024/02/15 07:00:30;;;;;;;56.47;22.48;;;;;;;10.64;100.00;101197.19;10294104;28;20041;-71
2024/02/15 07:05:27;;;;;;;60.53;24.00;;;;;;;10.66;100.00;101194.97;10294088;28;20049;-71
2024/02/15 07:10:24;;;;;;;59.95;22.98;;;;;;;10.67;100.00;101193.84;10310481;28;20051;-71
2024/02/15 07:15:20;;;;;;;56.85;23.50;;;;;;;10.63;100.00;101187.38;10359698;28;20097;-72
2024/02/15 07:20:17;;;;;;;55.42;23.08;;;;;;;10.68;100.00;101195.47;10351193;28;20051;-72
2024/02/15 07:25:14;;;;;;;51.38;22.52;;;;;;;10.69;100.00;101202.53;10343882;28;20036;-72
2024/02/15 07:30:11;;;;;;;52.35;22.60;;;;;;;10.72;100.00;101201.94;10306943;28;20049;-71
2024/02/15 07:35:07;;;;;;;53.90;21.55;;;;;;;10.77;100.00;101202.94;10308738;28;20128;-72
2024/02/15 07:40:07;;;;;;;51.78;22.38;;;;;;;10.79;100.00;101206.19;10304951;28;20052;-72
2024/02/15 07:45:06;;;;;;;47.83;22.10;;;;;;;10.85;100.00;101221.38;10313795;28;20044;-72
2024/02/15 07:50:03;;;;;;;46.30;20.38;;;;;;;10.87;100.00;101224.63;10302753;28;20097;-72
2024/02/15 07:55:01;;;;;;;41.65;18.70;;;;;;;10.89;100.00;101238.78;10310604;28;20052;-71
2024/02/15 07:59:58;;;;;;;44.53;19.35;;;;;;;10.87;100.00;101235.56;10343362;28;20048;-72
2024/02/15 08:04:54;;;;;;;40.05;18.77;;;;;;;10.98;100.00;101242.44;10351046;27;20048;-72
2024/02/15 08:09:51;;;;;;;37.40;19.50;;;;;;;10.95;100.00;101264.91;10349853;27;20040;-72
2024/02/15 08:14:47;;;;;;;37.13;19.40;;;;;;;11.01;100.00;101274.63;10347881;27;20187;-71
2024/02/15 08:19:44;;;;;;;37.78;19.13;;;;;;;11.01;100.00;101290.25;10345250;27;20044;-71
2024/02/15 08:24:43;;;;;;;45.03;20.13;;;;;;;10.98;100.00;101288.94;10352210;28;20050;-73
2024/02/15 08:29:40;;;;;;;39.35;20.05;;;;;;;11.12;100.00;101308.88;10350262;27;20040;-71
2024/02/15 08:34:36;;;;;;;36.92;19.80;;;;;;;11.09;100.00;101306.75;10358319;27;20504;-72
2024/02/15 08:39:34;;;;;;;38.15;18.50;;;;;;;11.11;100.00;101323.66;10351529;27;20063;-71
2024/02/15 08:44:31;;;;;;;33.33;18.08;;;;;;;11.21;100.00;101310.88;10344709;27;20044;-72
2024/02/15 08:49:30;;;;;;;33.38;20.02;;;;;;;11.23;100.00;101319.59;10341083;27;20044;-71
2024/02/15 08:54:27;;;;;;;39.65;18.38;;;;;;;11.28;100.00;101322.22;10352170;27;20069;-71
2024/02/15 08:59:24;;;;;;;29.13;16.45;;;;;;;11.27;100.00;101326.06;10345811;27;20066;-72
2024/02/15 09:04:23;;;;;;;22.55;13.05;;;;;;;11.37;100.00;101317.63;10346152;27;20101;-72
2024/02/15 09:09:20;;;;;;;24.20;14.23;;;;;;;11.45;100.00;101325.13;10350486;27;20040;-72
2024/02/15 09:14:16;;;;;;;21.17;15.40;;;;;;;11.41;100.00;101337.00;10349551;27;20048;-71
2024/02/15 09:19:14;;;;;;;25.10;14.52;;;;;;;11.48;100.00;101346.41;10350277;27;20044;-73
2024/02/15 09:24:10;;;;;;;20.98;14.57;;;;;;;11.43;100.00;101349.25;10350376;27;20063;-70
2024/02/15 09:29:07;;;;;;;24.38;13.82;;;;;;;11.56;100.00;101348.41;10344298;27;20531;-69
2024/02/15 09:34:06;;;;;;;24.65;15.10;;;;;;;11.53;100.00;101351.78;10349334;27;20044;-70
2024/02/15 09:39:04;;;;;;;19.38;15.23;;;;;;;11.57;100.00;101357.44;10345751;27;20040;-72
2024/02/15 09:44:01;;;;;;;17.52;13.90;;;;;;;11.48;100.00;101359.28;10328914;28;20052;-72
2024/02/15 09:48:58;;;;;;;20.52;14.13;;;;;;;11.55;100.00;101354.19;10353761;27;20044;-73
2024/02/15 09:53:58;;;;;;;18.90;14.00;;;;;;;11.49;100.00;101356.25;10331308;27;20044;-72
2024/02/15 09:58:54;;;;;;;23.00;14.35;;;;;;;11.43;100.00;101346.53;10349938;27;20127;-71
2024/02/15 10:03:52;;;;;;;21.48;14.00;;;;;;;11.48;100.00;101343.66;10343590;27;20040;-71
2024/02/15 10:08:48;;;;;;;23.00;14.82;;;;;;;11.45;100.00;101333.34;10342667;27;20046;-73
2024/02/15 10:13:46;;;;;;;19.33;14.60;;;;;;;11.48;100.00;101327.22;10349957;27;20036;-72
2024/02/15 10:18:43;;;;;;;26.17;15.88;;;;;;;11.47;100.00;101327.56;10356995;27;20063;-73
2024/02/15 10:23:39;;;;;;;33.95;19.70;;;;;;;11.47;100.00;101325.63;10352240;27;20055;-71
2024/02/15 10:28:36;;;;;;;26.45;16.40;;;;;;;11.50;100.00;101319.53;10354276;28;20101;-72
2024/02/15 10:33:34;;;;;;;25.48;16.92;;;;;;;11.53;100.00;101313.44;10343759;27;20043;-69
2024/02/15 10:38:31;;;;;;;35.50;19.27;;;;;;;11.57;100.00;101313.63;10359093;28;20036;-73
2024/02/15 10:43:28;;;;;;;35.50;20.10;;;;;;;11.50;100.00;101300.34;10347312;27;20097;-71
2024/02/15 10:48:24;;;;;;;31.83;19.55;;;;;;;11.61;100.00;101297.38;10358216;27;20525;-72
2024/02/15 10:53:26;;;;;;;31.00;19.23;;;;;;;11.69;100.00;101293.88;10345853;27;20036;-72
2024/02/15 10:58:29;;;;;;;34.22;20.08;;;;;;;11.70;100.00;101285.38;10348176;27;20071;-71
2024/02/15 11:03:33;;;;;;;33.67;20.25;;;;;;;11.78;100.00;101286.53;10342082;27;20101;-70
2024/02/15 11:08:30;;;;;;;37.17;21.20;;;;;;;11.85;100.00;101284.16;10353852;27;20039;-70
2024/02/15 11:13:27;;;;;;;37.60;21.85;;;;;;;11.82;100.00;101282.06;10345739;27;20071;-70
2024/02/15 11:18:48;;;;;;;41.70;24.70;;;;;;;11.83;100.00;101283.66;10344135;27;20044;-70
2024/02/15 11:23:45;;;;;;;38.92;23.23;;;;;;;11.80;100.00;101284.31;10351847;27;20669;-70
2024/02/15 11:28:43;;;;;;;41.78;25.05;;;;;;;11.80;100.00;101287.03;10356603;27;20040;-71
2024/02/15 11:33:43;;;;;;;44.30;24.83;;;;;;;11.80;100.00;101278.81;10347380;27;20037;-69
2024/02/15 11:38:41;;;;;;;47.17;26.00;;;;;;;11.80;100.00;101274.16;10348851;27;20040;-72
2024/02/15 11:43:45;;;;;;;39.95;24.27;;;;;;;11.69;100.00;101275.50;10351313;27;20079;-72
2024/02/15 11:48:42;;;;;;;41.10;25.02;;;;;;;11.63;100.00;101265.00;10345008;27;20072;-72
2024/02/15 11:53:39;;;;;;;43.42;26.10;;;;;;;11.64;100.00;101252.94;10344352;27;20071;-72
2024/02/15 11:58:52;;;;;;;41.75;25.65;;;;;;;11.63;100.00;101246.66;10362392;28;20496;-72
2024/02/15 12:19:40;;;;;;;48.00;26.60;;;;;;;11.54;100.00;101221.94;10357240;27;20043;-72
2024/02/15 12:24:36;;;;;;;42.15;25.05;;;;;;;11.55;100.00;101200.84;10335514;27;20051;-71
2024/02/15 12:29:35;;;;;;;49.70;26.17;;;;;;;11.57;100.00;101187.63;10345247;27;20040;-72
2024/02/15 12:34:31;;;;;;;40.97;24.00;;;;;;;11.63;100.00;101180.09;10355800;27;20050;-73
2024/02/15 12:39:29;;;;;;;35.53;22.30;;;;;;;11.57;100.00;101172.00;10349733;27;20464;-71
2024/02/15 12:44:27;;;;;;;38.03;21.75;;;;;;;11.59;100.00;101169.78;10347190;27;20044;-71
2024/02/15 12:49:23;;;;;;;36.38;21.52;;;;;;;11.51;100.00;101159.59;10346868;27;20076;-72
2024/02/15 12:54:21;;;;;;;35.78;21.20;;;;;;;11.44;100.00;101161.97;10340812;27;20521;-72
2024/02/15 12:59:21;;;;;;;31.08;18.88;;;;;;;11.50;100.00;101155.22;10342592;27;20515;-71
2024/02/15 13:04:28;;;;;;;28.55;18.58;;;;;;;11.49;100.00;101145.41;10348684;27;20044;-71
2024/02/15 13:09:25;;;;;;;30.55;18.05;;;;;;;11.52;100.00;101130.28;10348963;27;20409;-71
2024/02/15 13:14:22;;;;;;;23.40;16.02;;;;;;;11.61;100.00;101130.31;10355990;27;20074;-72
2024/02/15 13:19:20;;;;;;;23.98;15.77;;;;;;;11.55;100.00;101130.44;10349069;27;20032;-71
2024/02/15 13:24:19;;;;;;;25.75;14.77;;;;;;;11.49;100.00;101131.72;10337618;27;20040;-71
2024/02/15 13:29:15;;;;;;;22.45;14.48;;;;;;;11.52;100.00;101124.78;10343398;27;20135;-71
2024/02/15 13:34:12;;;;;;;24.42;13.88;;;;;;;11.49;100.00;101120.75;10341684;27;20043;-72
2024/02/15 13:39:09;;;;;;;21.05;13.13;;;;;;;11.46;100.00;101110.41;10344427;27;20600;-72
2024/02/15 13:44:06;;;;;;;15.25;11.40;;;;;;;11.42;100.00;101120.41;10348196;27;20071;-73
2024/02/15 13:49:03;;;;;;;19.23;11.55;;;;;;;11.45;100.00;101111.53;10339178;27;20036;-71
2024/02/15 13:54:00;;;;;;;15.20;11.30;;;;;;;11.45;100.00;101114.28;10351332;27;20467;-71
2024/02/15 13:58:56;;;;;;;15.93;11.27;;;;;;;11.43;100.00;101111.03;10356265;27;20138;-71
2024/02/15 14:03:59;;;;;;;20.63;11.52;;;;;;;11.41;100.00;101113.28;10346500;27;20048;-71
2024/02/15 14:08:55;;;;;;;20.25;11.43;;;;;;;11.41;100.00;101116.03;10355203;27;20044;-71
2024/02/15 14:13:58;;;;;;;17.98;12.82;;;;;;;11.41;100.00;101112.47;10353917;28;20511;-72
2024/02/15 14:18:54;;;;;;;19.42;12.77;;;;;;;11.44;100.00;101117.31;10347113;28;20040;-73
2024/02/15 14:23:51;;;;;;;17.40;11.65;;;;;;;11.45;100.00;101114.28;10343767;27;20519;-72
2024/02/15 14:28:49;;;;;;;14.68;10.93;;;;;;;11.49;100.00;101125.44;10354168;27;20040;-72
2024/02/15 14:33:49;;;;;;;14.23;12.15;;;;;;;11.48;100.00;101119.13;10354753;28;20046;-71
2024/02/15 14:38:46;;;;;;;16.98;11.50;;;;;;;11.49;100.00;101126.22;10362340;27;20159;-71
2024/02/15 14:43:43;;;;;;;15.68;12.35;;;;;;;11.49;100.00;101137.19;10353977;27;20093;-71
2024/02/15 14:48:40;;;;;;;17.77;11.65;;;;;;;11.54;100.00;101139.78;10351135;27;20094;-72
2024/02/15 14:53:37;;;;;;;18.38;11.90;;;;;;;11.53;100.00;101143.66;10353316;27;20044;-70
2024/02/15 14:58:35;;;;;;;15.40;11.10;;;;;;;11.56;100.00;101148.50;10351588;27;20048;-72
2024/02/15 15:03:37;;;;;;;18.33;12.75;;;;;;;11.59;100.00;101147.84;10349934;27;20469;-72
2024/02/15 15:13:49;;;;;;;23.73;15.07;;;;;;;11.58;100.00;101162.69;10353134;27;20093;-72
2024/02/15 15:18:49;;;;;;;17.85;12.77;;;;;;;11.53;100.00;101165.56;10352086;27;20044;-71
2024/02/15 15:23:46;;;;;;;16.15;12.85;;;;;;;11.59;100.00;101163.50;10344605;27;20040;-72
2024/02/15 15:28:43;;;;;;;16.50;13.48;;;;;;;11.61;100.00;101171.41;10342597;28;20154;-73
2024/02/15 15:33:39;;;;;;;15.40;12.38;;;;;;;11.61;100.00;101155.78;10343148;27;20051;-72
2024/02/15 15:38:36;;;;;;;18.23;13.20;;;;;;;11.60;100.00;101165.09;10346341;27;20044;-71
2024/02/15 15:43:32;;;;;;;15.25;13.40;;;;;;;11.62;100.00;101178.47;10365027;27;20032;-72
2024/02/15 15:48:29;;;;;;;15.55;13.38;;;;;;;11.58;100.00;101178.31;10351869;28;20036;-71
2024/02/15 15:53:27;;;;;;;18.08;13.80;;;;;;;11.58;100.00;101187.34;10353254;27;20127;-72
2024/02/15 15:58:24;;;;;;;15.32;13.43;;;;;;;11.61;100.00;101183.16;10343381;27;20571;-71
2024/02/15 16:03:22;;;;;;;18.88;12.88;;;;;;;11.58;100.00;101176.38;10339904;27;20040;-71
2024/02/15 16:08:19;;;;;;;17.95;13.38;;;;;;;11.61;100.00;101193.31;10363451;27;20036;-71
2024/02/15 16:13:15;;;;;;;17.45;13.48;;;;;;;11.53;100.00;101195.69;10342079;27;20039;-71
2024/02/15 16:18:13;;;;;;;15.52;14.05;;;;;;;11.64;100.00;101209.09;10352129;27;20044;-71
2024/02/15 16:23:11;;;;;;;18.38;15.25;;;;;;;11.61;100.00;101212.47;10352152;27;20048;-72
2024/02/15 16:28:08;;;;;;;18.08;14.02;;;;;;;11.62;100.00;101217.63;10360678;27;20093;-71
2024/02/15 16:33:04;;;;;;;17.85;14.52;;;;;;;11.62;100.00;101219.56;10343892;28;20056;-71
2024/02/15 16:38:01;;;;;;;17.15;13.63;;;;;;;11.58;100.00;101228.41;10351620;27;20044;-72
2024/02/15 16:42:57;;;;;;;19.08;14.60;;;;;;;11.59;100.00;101215.53;10344136;27;20055;-72
2024/02/15 16:47:59;;;;;;;15.63;12.93;;;;;;;11.58;100.00;101233.91;10350935;27;20078;-73
2024/02/15 16:52:56;;;;;;;19.17;12.98;;;;;;;11.57;100.00;101235.00;10343999;27;20063;-72
2024/02/15 16:58:00;;;;;;;16.48;13.27;;;;;;;11.62;100.00;101233.25;10353170;27;20044;-72
2024/02/15 17:02:57;;;;;;;19.17;14.18;;;;;;;11.57;100.00;101232.25;10342576;27;20070;-71
2024/02/15 17:07:56;;;;;;;16.45;14.25;;;;;;;11.53;100.00;101220.34;10347721;27;20479;-72
2024/02/15 17:12:53;;;;;;;19.42;14.80;;;;;;;11.50;100.00;101223.69;10351620;27;20056;-72
2024/02/15 17:17:50;;;;;;;17.63;15.68;;;;;;;11.45;100.00;101223.81;10337913;28;20037;-71
2024/02/15 17:22:47;;;;;;;24.45;14.85;;;;;;;11.47;100.00;101218.84;10352789;27;20041;-73
2024/02/15 17:27:44;;;;;;;21.88;16.02;;;;;;;11.45;100.00;101217.53;10346184;27;20052;-71
2024/02/15 17:32:43;;;;;;;20.35;16.15;;;;;;;11.40;100.00;101209.44;10360598;27;20051;-72
2024/02/15 17:37:40;;;;;;;19.65;15.18;;;;;;;11.42;100.00;101205.28;10349988;27;20040;-72
2024/02/15 17:42:38;;;;;;;23.15;16.88;;;;;;;11.37;100.00;101194.41;10345127;28;20097;-72
2024/02/15 17:47:39;;;;;;;20.65;16.27;;;;;;;11.39;100.00;101181.22;10356795;27;20047;-72
2024/02/15 17:52:36;;;;;;;24.30;16.10;;;;;;;11.42;100.00;101180.63;10335486;27;20514;-71
2024/02/15 17:57:33;;;;;;;20.13;15.57;;;;;;;11.41;100.00;101162.56;10349222;27;20071;-73
2024/02/15 18:02:29;;;;;;;22.02;16.55;;;;;;;11.41;100.00;101168.03;10349856;27;20052;-72
2024/02/15 18:07:28;;;;;;;24.33;15.55;;;;;;;11.43;100.00;101160.34;10350584;27;20472;-72
2024/02/15 18:12:27;;;;;;;18.08;14.02;;;;;;;11.45;100.00;101160.03;10358675;27;20530;-72
2024/02/15 18:17:26;;;;;;;23.52;16.10;;;;;;;11.44;100.00;101158.38;10354385;27;20050;-72
2024/02/15 18:22:27;;;;;;;20.75;16.15;;;;;;;11.43;100.00;101152.13;10348717;27;20131;-71
2024/02/15 18:27:24;;;;;;;18.63;14.73;;;;;;;11.44;100.00;101155.66;10346372;27;20094;-72
2024/02/15 18:32:22;;;;;;;24.05;16.73;;;;;;;11.43;100.00;101143.91;10347220;27;20495;-72
2024/02/15 18:37:18;;;;;;;26.02;15.63;;;;;;;11.40;100.00;101158.22;10346128;27;20056;-72
2024/02/15 18:42:16;;;;;;;16.15;12.60;;;;;;;11.34;100.00;101146.56;10352195;27;20636;-73
2024/02/15 18:47:13;;;;;;;18.55;12.55;;;;;;;11.35;100.00;101147.41;10360183;27;20139;-72
2024/02/15 18:52:10;;;;;;;21.05;13.15;;;;;;;11.31;100.00;101146.41;10344607;27;20047;-72
2024/02/15 18:57:08;;;;;;;14.88;12.02;;;;;;;11.39;100.00;101148.38;10349248;27;20463;-71
2024/02/15 19:02:08;;;;;;;12.65;10.65;;;;;;;11.41;100.00;101135.19;10349072;27;20113;-72
2024/02/15 19:07:05;;;;;;;14.20;11.07;;;;;;;11.42;100.00;101131.34;10351105;27;20498;-70
2024/02/15 19:12:02;;;;;;;15.65;11.98;;;;;;;11.46;100.00;101118.63;10354574;27;20048;-70
2024/02/15 19:16:58;;;;;;;17.92;12.38;;;;;;;11.42;100.00;101114.91;10357635;27;20075;-72
2024/02/15 19:21:55;;;;;;;19.05;12.95;;;;;;;11.41;100.00;101112.47;10352132;27;20461;-72
2024/02/15 19:26:51;;;;;;;19.75;13.52;;;;;;;11.38;100.00;101113.91;10367185;27;20040;-72
2024/02/15 19:31:50;;;;;;;14.48;11.55;;;;;;;11.34;100.00;101112.94;10353383;27;20050;-72
2024/02/15 19:36:48;;;;;;;14.88;11.38;;;;;;;11.28;100.00;101114.16;10336705;27;20044;-73
2024/02/15 19:41:55;;;;;;;16.42;12.52;;;;;;;11.26;100.00;101119.16;10356207;27;20511;-72
2024/02/15 19:46:51;;;;;;;14.35;11.35;;;;;;;11.22;100.00;101120.91;10352618;27;20059;-71
2024/02/15 19:51:49;;;;;;;13.50;10.88;;;;;;;11.20;100.00;101113.00;10342115;27;20045;-72
2024/02/15 19:56:46;;;;;;;12.63;9.45;;;;;;;11.28;100.00;101114.16;10352573;27;20064;-71
2024/02/15 20:01:43;;;;;;;14.98;10.90;;;;;;;11.30;100.00;101107.28;10359716;27;20040;-71
2024/02/15 20:06:44;;;;;;;16.45;10.70;;;;;;;11.30;100.00;101111.94;10350904;27;20086;-71
2024/02/15 20:11:41;;;;;;;17.23;9.88;;;;;;;11.30;100.00;101111.94;10351073;27;20081;-72
2024/02/15 20:16:38;;;;;;;12.60;10.10;;;;;;;11.30;100.00;101106.44;10350358;27;20044;-72
2024/02/15 20:21:35;;;;;;;14.57;10.63;;;;;;;11.30;100.00;101106.44;10352261;27;20595;-71
2024/02/15 20:26:32;;;;;;;11.70;9.88;;;;;;;11.32;100.00;101109.69;10352782;27;20043;-73
2024/02/15 20:31:32;;;;;;;11.70;9.25;;;;;;;11.30;100.00;101115.50;10352483;27;20423;-72
2024/02/15 20:36:28;;;;;;;12.23;8.70;;;;;;;11.28;100.00;101111.44;10340535;27;20518;-71
2024/02/15 20:41:26;;;;;;;11.35;9.23;;;;;;;11.30;100.00;101122.88;10349330;27;20070;-71
2024/02/15 20:46:28;;;;;;;12.23;9.93;;;;;;;11.33;100.00;101127.75;10350823;28;20044;-71
2024/02/15 20:51:25;;;;;;;14.93;9.23;;;;;;;11.31;100.00;101124.50;10324390;28;20097;-71
2024/02/15 20:56:22;;;;;;;12.18;9.38;;;;;;;11.34;100.00;101145.78;10345597;27;20035;-71
2024/02/15 21:01:19;;;;;;;12.65;9.88;;;;;;;11.33;100.00;101149.66;10342283;27;20045;-73
2024/02/15 21:06:21;;;;;;;15.35;10.52;;;;;;;11.34;100.00;101152.06;10342799;28;20055;-72
2024/02/15 21:11:19;;;;;;;11.50;8.55;;;;;;;11.37;100.00;101162.41;10338996;27;20043;-72
2024/02/15 21:16:20;;;;;;;14.70;9.43;;;;;;;11.36;100.00;101149.00;10350307;27;20091;-72
2024/02/15 21:21:17;;;;;;;14.30;8.43;;;;;;;11.32;100.00;101148.00;10347818;27;20033;-72
2024/02/15 21:26:14;;;;;;;14.75;9.23;;;;;;;11.31;100.00;101149.16;10356000;27;20043;-71
2024/02/15 21:31:17;;;;;;;14.07;9.32;;;;;;;11.28;100.00;101152.50;10345164;27;20056;-71
2024/02/15 21:36:14;;;;;;;12.48;8.52;;;;;;;11.28;100.00;101157.97;10348014;28;20058;-72
2024/02/15 21:41:12;;;;;;;11.45;8.48;;;;;;;11.24;100.00;101151.53;10351211;27;20052;-72
2024/02/15 21:46:10;;;;;;;11.10;8.80;;;;;;;11.19;100.00;101154.38;10346884;27;20055;-72
2024/02/15 21:51:07;;;;;;;11.88;8.18;;;;;;;11.18;100.00;101153.56;10348578;27;20051;-72
2024/02/15 21:56:04;;;;;;;9.55;7.78;;;;;;;11.20;100.00;101150.53;10328902;27;20499;-73
2024/02/15 22:01:01;;;;;;;10.13;8.07;;;;;;;11.21;100.00;101141.16;10345055;27;20048;-73
2024/02/15 22:05:58;;;;;;;10.98;8.13;;;;;;;11.23;100.00;101138.94;10353269;27;20097;-73
2024/02/15 22:10:54;;;;;;;10.50;9.02;;;;;;;11.25;100.00;101142.16;10358494;27;20040;-73
2024/02/15 22:15:51;;;;;;;12.05;9.23;;;;;;;11.23;100.00;101133.47;10355302;27;20047;-72
2024/02/15 22:20:48;;;;;;;11.23;8.45;;;;;;;11.25;100.00;101140.25;10359115;27;20066;-71
2024/02/15 22:25:45;;;;;;;10.05;8.27;;;;;;;11.23;100.00;101128.00;10361923;27;20047;-71
2024/02/15 22:30:42;;;;;;;11.25;9.25;;;;;;;11.20;100.00;101134.91;10359576;27;20052;-70